sensor_id;sensor_type;location;lat;lon;timestamp;temperature;humidity
76967;DHT22;65904;52.278;20.972;2022-12-18T00:00:11;-4.30;81.10
76967;DHT22;65904;52.278;20.972;2022-12-18T00:03:20;-4.20;81.40
76967;DHT22;65904;52.278;20.972;2022-12-18T00:06:06;-4.30;81.30
76967;DHT22;65904;52.278;20.972;2022-12-18T00:08:53;-4.20;81.50
76967;DHT22;65904;52.278;20.972;2022-12-18T00:11:41;-4.20;81.60
76967;DHT22;65904;52.278;20.972;2022-12-18T00:14:27;-4.20;81.80
76967;DHT22;65904;52.278;20.972;2022-12-18T00:17:14;-4.20;82.40
76967;DHT22;65904;52.278;20.972;2022-12-18T00:20:01;-4.20;82.30
76967;DHT22;65904;52.278;20.972;2022-12-18T00:22:47;-4.20;82.70
76967;DHT22;65904;52.278;20.972;2022-12-18T00:25:34;-4.20;82.50
76967;DHT22;65904;52.278;20.972;2022-12-18T00:28:20;-4.20;82.40
76967;DHT22;65904;52.278;20.972;2022-12-18T00:31:09;-4.20;82.50
76967;DHT22;65904;52.278;20.972;2022-12-18T00:33:57;-4.20;82.50
76967;DHT22;65904;52.278;20.972;2022-12-18T00:36:43;-4.20;82.50
76967;DHT22;65904;52.278;20.972;2022-12-18T00:39:30;-4.10;82.70
76967;DHT22;65904;52.278;20.972;2022-12-18T00:42:18;-4.10;82.40
76967;DHT22;65904;52.278;20.972;2022-12-18T00:45:21;-4.10;82.30
76967;DHT22;65904;52.278;20.972;2022-12-18T00:48:08;-4.10;82.30
76967;DHT22;65904;52.278;20.972;2022-12-18T00:50:55;-4.00;82.20
76967;DHT22;65904;52.278;20.972;2022-12-18T00:53:41;-4.00;82.00
76967;DHT22;65904;52.278;20.972;2022-12-18T00:56:27;-4.00;82.20
76967;DHT22;65904;52.278;20.972;2022-12-18T00:59:13;-4.00;82.00
76967;DHT22;65904;52.278;20.972;2022-12-18T01:01:59;-4.00;81.70
76967;DHT22;65904;52.278;20.972;2022-12-18T01:04:46;-3.90;81.40
76967;DHT22;65904;52.278;20.972;2022-12-18T01:07:33;-3.90;81.60
76967;DHT22;65904;52.278;20.972;2022-12-18T01:10:21;-3.90;81.30
76967;DHT22;65904;52.278;20.972;2022-12-18T01:13:08;-3.90;81.30
76967;DHT22;65904;52.278;20.972;2022-12-18T01:15:54;-3.90;81.30
76967;DHT22;65904;52.278;20.972;2022-12-18T01:18:40;-3.90;81.20
76967;DHT22;65904;52.278;20.972;2022-12-18T01:21:27;-3.90;80.80
76967;DHT22;65904;52.278;20.972;2022-12-18T01:24:14;-3.90;80.70
76967;DHT22;65904;52.278;20.972;2022-12-18T01:27:01;-3.90;80.40
76967;DHT22;65904;52.278;20.972;2022-12-18T01:29:47;-3.90;80.30
76967;DHT22;65904;52.278;20.972;2022-12-18T01:32:33;-3.90;80.40
76967;DHT22;65904;52.278;20.972;2022-12-18T01:35:20;-3.90;80.50
76967;DHT22;65904;52.278;20.972;2022-12-18T01:38:06;-3.90;80.50
76967;DHT22;65904;52.278;20.972;2022-12-18T01:40:58;-3.90;80.40
76967;DHT22;65904;52.278;20.972;2022-12-18T01:43:51;-3.90;80.30
76967;DHT22;65904;52.278;20.972;2022-12-18T01:46:37;-3.80;80.00
76967;DHT22;65904;52.278;20.972;2022-12-18T01:49:24;-3.90;79.60
76967;DHT22;65904;52.278;20.972;2022-12-18T01:52:10;-3.90;79.60
76967;DHT22;65904;52.278;20.972;2022-12-18T01:54:56;-3.90;79.70
76967;DHT22;65904;52.278;20.972;2022-12-18T01:57:47;-3.90;79.70
76967;DHT22;65904;52.278;20.972;2022-12-18T02:00:34;-3.90;79.60
76967;DHT22;65904;52.278;20.972;2022-12-18T02:03:20;-3.90;79.80
76967;DHT22;65904;52.278;20.972;2022-12-18T02:06:12;-3.90;80.00
76967;DHT22;65904;52.278;20.972;2022-12-18T02:09:06;-3.90;79.90
76967;DHT22;65904;52.278;20.972;2022-12-18T02:11:59;-3.90;80.20
76967;DHT22;65904;52.278;20.972;2022-12-18T02:14:55;-3.90;80.50
76967;DHT22;65904;52.278;20.972;2022-12-18T02:17:49;-3.90;80.40
76967;DHT22;65904;52.278;20.972;2022-12-18T02:20:41;-3.90;80.20
76967;DHT22;65904;52.278;20.972;2022-12-18T02:23:47;-3.90;80.20
76967;DHT22;65904;52.278;20.972;2022-12-18T02:26:40;-3.90;80.10
76967;DHT22;65904;52.278;20.972;2022-12-18T02:29:33;-3.90;80.10
76967;DHT22;65904;52.278;20.972;2022-12-18T02:32:24;-3.90;80.00
76967;DHT22;65904;52.278;20.972;2022-12-18T02:35:13;-3.90;80.00
76967;DHT22;65904;52.278;20.972;2022-12-18T02:38:03;-3.90;80.10
76967;DHT22;65904;52.278;20.972;2022-12-18T02:40:53;-3.90;80.30
76967;DHT22;65904;52.278;20.972;2022-12-18T02:43:46;-3.90;80.00
76967;DHT22;65904;52.278;20.972;2022-12-18T02:46:39;-3.90;80.20
76967;DHT22;65904;52.278;20.972;2022-12-18T02:49:34;-3.90;80.00
76967;DHT22;65904;52.278;20.972;2022-12-18T02:52:30;-4.00;80.10
76967;DHT22;65904;52.278;20.972;2022-12-18T02:55:28;-4.00;79.80
76967;DHT22;65904;52.278;20.972;2022-12-18T02:58:28;-4.00;79.80
76967;DHT22;65904;52.278;20.972;2022-12-18T03:01:28;-4.00;79.80
76967;DHT22;65904;52.278;20.972;2022-12-18T03:04:22;-3.90;79.90
76967;DHT22;65904;52.278;20.972;2022-12-18T03:07:15;-4.00;79.80
76967;DHT22;65904;52.278;20.972;2022-12-18T03:10:03;-4.00;79.80
76967;DHT22;65904;52.278;20.972;2022-12-18T03:12:55;-4.00;79.80
76967;DHT22;65904;52.278;20.972;2022-12-18T03:15:47;-4.00;79.90
76967;DHT22;65904;52.278;20.972;2022-12-18T03:18:39;-4.00;80.10
76967;DHT22;65904;52.278;20.972;2022-12-18T03:21:31;-4.10;80.20
76967;DHT22;65904;52.278;20.972;2022-12-18T03:24:20;-4.00;80.30
76967;DHT22;65904;52.278;20.972;2022-12-18T03:27:10;-4.10;79.80
76967;DHT22;65904;52.278;20.972;2022-12-18T03:30:01;-4.00;79.80
76967;DHT22;65904;52.278;20.972;2022-12-18T03:32:58;-4.10;79.70
76967;DHT22;65904;52.278;20.972;2022-12-18T03:35:49;-4.10;80.00
76967;DHT22;65904;52.278;20.972;2022-12-18T03:38:37;-4.10;79.80
76967;DHT22;65904;52.278;20.972;2022-12-18T03:41:29;-4.10;80.20
76967;DHT22;65904;52.278;20.972;2022-12-18T03:44:36;-4.10;79.70
76967;DHT22;65904;52.278;20.972;2022-12-18T03:47:28;-4.10;80.00
76967;DHT22;65904;52.278;20.972;2022-12-18T03:50:24;-4.10;80.10
76967;DHT22;65904;52.278;20.972;2022-12-18T03:53:22;-4.10;80.20
76967;DHT22;65904;52.278;20.972;2022-12-18T03:56:12;-4.10;80.40
76967;DHT22;65904;52.278;20.972;2022-12-18T03:59:01;-4.10;80.40
76967;DHT22;65904;52.278;20.972;2022-12-18T04:01:51;-4.20;80.30
76967;DHT22;65904;52.278;20.972;2022-12-18T04:04:39;-4.20;80.00
76967;DHT22;65904;52.278;20.972;2022-12-18T04:07:26;-4.10;80.10
76967;DHT22;65904;52.278;20.972;2022-12-18T04:10:17;-4.20;79.90
76967;DHT22;65904;52.278;20.972;2022-12-18T04:13:04;-4.20;80.00
76967;DHT22;65904;52.278;20.972;2022-12-18T04:15:51;-4.10;80.10
76967;DHT22;65904;52.278;20.972;2022-12-18T04:18:38;-4.20;80.20
76967;DHT22;65904;52.278;20.972;2022-12-18T04:21:24;-4.20;80.30
76967;DHT22;65904;52.278;20.972;2022-12-18T04:24:11;-4.20;80.40
76967;DHT22;65904;52.278;20.972;2022-12-18T04:27:06;-4.30;80.10
76967;DHT22;65904;52.278;20.972;2022-12-18T04:29:58;-4.20;80.30
76967;DHT22;65904;52.278;20.972;2022-12-18T04:32:44;-4.30;80.20
76967;DHT22;65904;52.278;20.972;2022-12-18T04:35:30;-4.30;80.30
76967;DHT22;65904;52.278;20.972;2022-12-18T04:38:17;-4.40;80.20
76967;DHT22;65904;52.278;20.972;2022-12-18T04:41:05;-4.40;80.30
76967;DHT22;65904;52.278;20.972;2022-12-18T04:43:52;-4.40;80.50
76967;DHT22;65904;52.278;20.972;2022-12-18T04:46:38;-4.50;80.60
76967;DHT22;65904;52.278;20.972;2022-12-18T04:49:25;-4.50;80.80
76967;DHT22;65904;52.278;20.972;2022-12-18T04:52:12;-4.60;80.60
76967;DHT22;65904;52.278;20.972;2022-12-18T04:54:57;-4.60;80.60
76967;DHT22;65904;52.278;20.972;2022-12-18T04:57:44;-4.70;80.70
76967;DHT22;65904;52.278;20.972;2022-12-18T05:00:31;-4.70;80.70
76967;DHT22;65904;52.278;20.972;2022-12-18T05:03:17;-4.90;80.80
76967;DHT22;65904;52.278;20.972;2022-12-18T05:06:03;-5.10;81.10
76967;DHT22;65904;52.278;20.972;2022-12-18T05:08:49;-5.20;81.70
76967;DHT22;65904;52.278;20.972;2022-12-18T05:11:35;-5.30;82.10
76967;DHT22;65904;52.278;20.972;2022-12-18T05:14:22;-5.40;82.30
76967;DHT22;65904;52.278;20.972;2022-12-18T05:17:09;-5.40;82.60
76967;DHT22;65904;52.278;20.972;2022-12-18T05:19:55;-5.50;82.90
76967;DHT22;65904;52.278;20.972;2022-12-18T05:22:41;-5.50;83.00
76967;DHT22;65904;52.278;20.972;2022-12-18T05:25:27;-5.60;83.00
76967;DHT22;65904;52.278;20.972;2022-12-18T05:28:13;-5.70;83.50
76967;DHT22;65904;52.278;20.972;2022-12-18T05:31:03;-5.70;84.10
76967;DHT22;65904;52.278;20.972;2022-12-18T05:33:52;-5.60;84.40
76967;DHT22;65904;52.278;20.972;2022-12-18T05:36:38;-5.60;84.30
76967;DHT22;65904;52.278;20.972;2022-12-18T05:39:24;-5.60;84.00
76967;DHT22;65904;52.278;20.972;2022-12-18T05:42:11;-5.60;83.60
76967;DHT22;65904;52.278;20.972;2022-12-18T05:44:57;-5.60;83.60
76967;DHT22;65904;52.278;20.972;2022-12-18T05:47:43;-5.60;83.90
76967;DHT22;65904;52.278;20.972;2022-12-18T05:50:30;-5.50;84.20
76967;DHT22;65904;52.278;20.972;2022-12-18T05:53:20;-5.40;84.10
76967;DHT22;65904;52.278;20.972;2022-12-18T05:56:08;-5.30;84.00
76967;DHT22;65904;52.278;20.972;2022-12-18T05:58:55;-5.20;84.30
76967;DHT22;65904;52.278;20.972;2022-12-18T06:01:41;-5.10;84.50
76967;DHT22;65904;52.278;20.972;2022-12-18T06:04:31;-5.00;84.40
76967;DHT22;65904;52.278;20.972;2022-12-18T06:07:18;-5.00;84.40
76967;DHT22;65904;52.278;20.972;2022-12-18T06:10:05;-5.00;84.30
76967;DHT22;65904;52.278;20.972;2022-12-18T06:12:52;-5.00;84.30
76967;DHT22;65904;52.278;20.972;2022-12-18T06:15:38;-4.90;84.40
76967;DHT22;65904;52.278;20.972;2022-12-18T06:18:24;-4.90;84.40
76967;DHT22;65904;52.278;20.972;2022-12-18T06:21:10;-4.90;84.40
76967;DHT22;65904;52.278;20.972;2022-12-18T06:23:58;-4.90;84.50
76967;DHT22;65904;52.278;20.972;2022-12-18T06:26:44;-4.90;84.80
76967;DHT22;65904;52.278;20.972;2022-12-18T06:29:30;-4.90;85.00
76967;DHT22;65904;52.278;20.972;2022-12-18T06:32:16;-4.90;85.20
76967;DHT22;65904;52.278;20.972;2022-12-18T06:35:02;-4.90;85.30
76967;DHT22;65904;52.278;20.972;2022-12-18T06:37:49;-4.80;85.40
76967;DHT22;65904;52.278;20.972;2022-12-18T06:40:38;-4.80;85.40
76967;DHT22;65904;52.278;20.972;2022-12-18T06:43:25;-4.80;85.50
76967;DHT22;65904;52.278;20.972;2022-12-18T06:46:11;-4.80;85.50
76967;DHT22;65904;52.278;20.972;2022-12-18T06:48:57;-4.80;85.50
76967;DHT22;65904;52.278;20.972;2022-12-18T06:51:43;-4.70;85.50
76967;DHT22;65904;52.278;20.972;2022-12-18T06:54:29;-4.70;85.40
76967;DHT22;65904;52.278;20.972;2022-12-18T06:57:16;-4.70;85.50
76967;DHT22;65904;52.278;20.972;2022-12-18T07:00:04;-4.70;85.40
76967;DHT22;65904;52.278;20.972;2022-12-18T07:02:51;-4.70;85.40
76967;DHT22;65904;52.278;20.972;2022-12-18T07:05:39;-4.60;85.20
76967;DHT22;65904;52.278;20.972;2022-12-18T07:08:26;-4.60;85.30
76967;DHT22;65904;52.278;20.972;2022-12-18T07:11:12;-4.60;85.10
76967;DHT22;65904;52.278;20.972;2022-12-18T07:14:00;-4.60;85.30
76967;DHT22;65904;52.278;20.972;2022-12-18T07:16:47;-4.50;85.50
76967;DHT22;65904;52.278;20.972;2022-12-18T07:19:33;-4.50;86.20
76967;DHT22;65904;52.278;20.972;2022-12-18T07:22:20;-4.50;85.50
76967;DHT22;65904;52.278;20.972;2022-12-18T07:25:07;-4.40;85.20
76967;DHT22;65904;52.278;20.972;2022-12-18T07:27:54;-4.40;85.20
76967;DHT22;65904;52.278;20.972;2022-12-18T07:30:41;-4.30;85.20
76967;DHT22;65904;52.278;20.972;2022-12-18T07:33:28;-4.20;84.50
76967;DHT22;65904;52.278;20.972;2022-12-18T07:36:14;-4.20;84.50
76967;DHT22;65904;52.278;20.972;2022-12-18T07:39:00;-4.20;84.40
76967;DHT22;65904;52.278;20.972;2022-12-18T07:41:46;-4.20;84.40
76967;DHT22;65904;52.278;20.972;2022-12-18T07:44:52;-4.20;84.40
76967;DHT22;65904;52.278;20.972;2022-12-18T07:47:39;-4.10;84.60
76967;DHT22;65904;52.278;20.972;2022-12-18T07:50:27;-4.10;84.30
76967;DHT22;65904;52.278;20.972;2022-12-18T07:53:13;-4.00;84.20
76967;DHT22;65904;52.278;20.972;2022-12-18T07:56:01;-3.90;84.20
76967;DHT22;65904;52.278;20.972;2022-12-18T07:58:47;-3.90;83.80
76967;DHT22;65904;52.278;20.972;2022-12-18T08:01:34;-3.80;83.90
76967;DHT22;65904;52.278;20.972;2022-12-18T08:04:21;-3.80;84.00
76967;DHT22;65904;52.278;20.972;2022-12-18T08:07:07;-3.70;83.30
76967;DHT22;65904;52.278;20.972;2022-12-18T08:09:54;-3.60;83.20
76967;DHT22;65904;52.278;20.972;2022-12-18T08:12:40;-3.60;82.50
76967;DHT22;65904;52.278;20.972;2022-12-18T08:15:26;-3.60;82.30
76967;DHT22;65904;52.278;20.972;2022-12-18T08:18:12;-3.60;82.40
76967;DHT22;65904;52.278;20.972;2022-12-18T08:21:09;-3.50;82.30
76967;DHT22;65904;52.278;20.972;2022-12-18T08:23:56;-3.50;82.20
76967;DHT22;65904;52.278;20.972;2022-12-18T08:26:42;-3.60;82.10
76967;DHT22;65904;52.278;20.972;2022-12-18T08:29:29;-3.60;81.50
76967;DHT22;65904;52.278;20.972;2022-12-18T08:32:16;-3.60;81.10
76967;DHT22;65904;52.278;20.972;2022-12-18T08:35:03;-3.60;81.50
76967;DHT22;65904;52.278;20.972;2022-12-18T08:37:50;-3.60;81.70
76967;DHT22;65904;52.278;20.972;2022-12-18T08:40:36;-3.60;81.40
76967;DHT22;65904;52.278;20.972;2022-12-18T08:43:22;-3.70;81.40
76967;DHT22;65904;52.278;20.972;2022-12-18T08:46:30;-3.70;81.70
76967;DHT22;65904;52.278;20.972;2022-12-18T08:49:16;-3.70;81.20
76967;DHT22;65904;52.278;20.972;2022-12-18T08:52:03;-3.70;81.50
76967;DHT22;65904;52.278;20.972;2022-12-18T08:54:51;-3.70;81.60
76967;DHT22;65904;52.278;20.972;2022-12-18T08:57:37;-3.60;81.50
76967;DHT22;65904;52.278;20.972;2022-12-18T09:00:23;-3.60;81.60
76967;DHT22;65904;52.278;20.972;2022-12-18T09:03:11;-3.50;81.40
76967;DHT22;65904;52.278;20.972;2022-12-18T09:05:57;-3.50;81.30
76967;DHT22;65904;52.278;20.972;2022-12-18T09:08:44;-3.50;81.20
76967;DHT22;65904;52.278;20.972;2022-12-18T09:11:32;-3.50;81.10
76967;DHT22;65904;52.278;20.972;2022-12-18T09:14:19;-3.40;80.70
76967;DHT22;65904;52.278;20.972;2022-12-18T09:17:05;-3.60;80.10
76967;DHT22;65904;52.278;20.972;2022-12-18T09:19:51;-3.50;80.50
76967;DHT22;65904;52.278;20.972;2022-12-18T09:22:37;-3.50;80.90
76967;DHT22;65904;52.278;20.972;2022-12-18T09:25:24;-3.40;80.50
76967;DHT22;65904;52.278;20.972;2022-12-18T09:28:12;-3.30;80.10
76967;DHT22;65904;52.278;20.972;2022-12-18T09:31:04;-3.00;79.80
76967;DHT22;65904;52.278;20.972;2022-12-18T09:33:51;-2.90;78.40
76967;DHT22;65904;52.278;20.972;2022-12-18T09:36:37;-2.80;78.20
76967;DHT22;65904;52.278;20.972;2022-12-18T09:39:23;-2.80;78.10
76967;DHT22;65904;52.278;20.972;2022-12-18T09:42:16;-2.80;77.60
76967;DHT22;65904;52.278;20.972;2022-12-18T09:45:07;-2.80;78.10
76967;DHT22;65904;52.278;20.972;2022-12-18T09:47:58;-2.90;77.90
76967;DHT22;65904;52.278;20.972;2022-12-18T09:50:44;-2.90;78.20
76967;DHT22;65904;52.278;20.972;2022-12-18T09:53:35;-2.70;78.20
76967;DHT22;65904;52.278;20.972;2022-12-18T09:56:25;-2.80;77.80
76967;DHT22;65904;52.278;20.972;2022-12-18T09:59:23;-2.80;77.10
76967;DHT22;65904;52.278;20.972;2022-12-18T10:02:17;-2.90;77.80
76967;DHT22;65904;52.278;20.972;2022-12-18T10:05:05;-2.90;77.90
76967;DHT22;65904;52.278;20.972;2022-12-18T10:07:57;-2.80;77.20
76967;DHT22;65904;52.278;20.972;2022-12-18T10:10:48;-2.70;77.70
76967;DHT22;65904;52.278;20.972;2022-12-18T10:13:43;-2.80;77.10
76967;DHT22;65904;52.278;20.972;2022-12-18T10:16:38;-2.80;77.10
76967;DHT22;65904;52.278;20.972;2022-12-18T10:19:37;-2.80;77.20
76967;DHT22;65904;52.278;20.972;2022-12-18T10:22:34;-2.80;77.50
76967;DHT22;65904;52.278;20.972;2022-12-18T10:25:24;-2.90;77.00
76967;DHT22;65904;52.278;20.972;2022-12-18T10:28:14;-3.00;77.50
76967;DHT22;65904;52.278;20.972;2022-12-18T10:31:00;-3.10;77.90
76967;DHT22;65904;52.278;20.972;2022-12-18T10:33:46;-3.10;78.30
76967;DHT22;65904;52.278;20.972;2022-12-18T10:36:35;-3.10;78.30
76967;DHT22;65904;52.278;20.972;2022-12-18T10:39:23;-3.00;78.60
76967;DHT22;65904;52.278;20.972;2022-12-18T10:42:13;-2.90;78.30
76967;DHT22;65904;52.278;20.972;2022-12-18T10:45:08;-2.90;78.10
76967;DHT22;65904;52.278;20.972;2022-12-18T10:47:54;-2.80;77.80
76967;DHT22;65904;52.278;20.972;2022-12-18T10:50:47;-2.80;77.30
76967;DHT22;65904;52.278;20.972;2022-12-18T10:53:36;-2.80;77.90
76967;DHT22;65904;52.278;20.972;2022-12-18T10:56:24;-2.80;77.10
76967;DHT22;65904;52.278;20.972;2022-12-18T10:59:14;-2.70;77.20
76967;DHT22;65904;52.278;20.972;2022-12-18T11:02:00;-2.50;77.10
76967;DHT22;65904;52.278;20.972;2022-12-18T11:04:51;-2.50;76.60
76967;DHT22;65904;52.278;20.972;2022-12-18T11:07:48;-2.40;76.10
76967;DHT22;65904;52.278;20.972;2022-12-18T11:10:37;-2.30;75.80
76967;DHT22;65904;52.278;20.972;2022-12-18T11:13:25;-2.40;75.80
76967;DHT22;65904;52.278;20.972;2022-12-18T11:16:18;-2.40;75.70
76967;DHT22;65904;52.278;20.972;2022-12-18T11:19:19;-2.30;75.80
76967;DHT22;65904;52.278;20.972;2022-12-18T11:22:19;-2.20;75.40
76967;DHT22;65904;52.278;20.972;2022-12-18T11:25:18;-2.20;75.70
76967;DHT22;65904;52.278;20.972;2022-12-18T11:28:26;-2.10;75.50
76967;DHT22;65904;52.278;20.972;2022-12-18T11:31:19;-2.10;74.80
76967;DHT22;65904;52.278;20.972;2022-12-18T11:34:09;-2.10;74.90
76967;DHT22;65904;52.278;20.972;2022-12-18T11:37:00;-2.10;74.90
76967;DHT22;65904;52.278;20.972;2022-12-18T11:39:52;-2.00;74.60
76967;DHT22;65904;52.278;20.972;2022-12-18T11:42:45;-1.90;74.70
76967;DHT22;65904;52.278;20.972;2022-12-18T11:45:39;-1.90;74.70
76967;DHT22;65904;52.278;20.972;2022-12-18T11:48:28;-2.00;75.10
76967;DHT22;65904;52.278;20.972;2022-12-18T11:51:21;-2.00;75.10
76967;DHT22;65904;52.278;20.972;2022-12-18T11:54:12;-2.00;74.60
76967;DHT22;65904;52.278;20.972;2022-12-18T11:57:04;-1.90;74.30
76967;DHT22;65904;52.278;20.972;2022-12-18T11:59:59;-1.80;74.10
76967;DHT22;65904;52.278;20.972;2022-12-18T12:03:20;-1.70;74.30
76967;DHT22;65904;52.278;20.972;2022-12-18T12:06:11;-1.50;73.60
76967;DHT22;65904;52.278;20.972;2022-12-18T12:09:07;-1.60;72.40
76967;DHT22;65904;52.278;20.972;2022-12-18T12:12:07;-1.60;72.40
76967;DHT22;65904;52.278;20.972;2022-12-18T12:15:02;-1.50;72.30
76967;DHT22;65904;52.278;20.972;2022-12-18T12:17:56;-1.60;72.40
76967;DHT22;65904;52.278;20.972;2022-12-18T12:20:52;-1.70;72.30
76967;DHT22;65904;52.278;20.972;2022-12-18T12:23:47;-1.70;73.20
76967;DHT22;65904;52.278;20.972;2022-12-18T12:26:45;-1.50;72.50
76967;DHT22;65904;52.278;20.972;2022-12-18T12:29:43;-1.40;72.00
76967;DHT22;65904;52.278;20.972;2022-12-18T12:32:50;-1.30;72.30
76967;DHT22;65904;52.278;20.972;2022-12-18T12:35:46;-1.50;71.60
76967;DHT22;65904;52.278;20.972;2022-12-18T12:38:41;-1.60;72.30
76967;DHT22;65904;52.278;20.972;2022-12-18T12:41:32;-1.70;73.10
76967;DHT22;65904;52.278;20.972;2022-12-18T12:44:48;-1.80;73.20
76967;DHT22;65904;52.278;20.972;2022-12-18T12:47:38;-1.90;73.60
76967;DHT22;65904;52.278;20.972;2022-12-18T12:50:26;-2.00;74.00
76967;DHT22;65904;52.278;20.972;2022-12-18T12:53:25;-2.10;74.40
76967;DHT22;65904;52.278;20.972;2022-12-18T12:56:15;-2.10;74.30
76967;DHT22;65904;52.278;20.972;2022-12-18T12:59:09;-2.10;74.30
76967;DHT22;65904;52.278;20.972;2022-12-18T13:02:01;-2.20;74.50
76967;DHT22;65904;52.278;20.972;2022-12-18T13:04:57;-2.30;74.70
76967;DHT22;65904;52.278;20.972;2022-12-18T13:07:49;-2.40;75.30
76967;DHT22;65904;52.278;20.972;2022-12-18T13:10:38;-2.50;76.60
76967;DHT22;65904;52.278;20.972;2022-12-18T13:13:47;-2.50;76.40
76967;DHT22;65904;52.278;20.972;2022-12-18T13:16:33;-2.60;76.40
76967;DHT22;65904;52.278;20.972;2022-12-18T13:19:22;-2.60;76.50
76967;DHT22;65904;52.278;20.972;2022-12-18T13:22:21;-2.60;76.60
76967;DHT22;65904;52.278;20.972;2022-12-18T13:25:32;-2.60;77.10
76967;DHT22;65904;52.278;20.972;2022-12-18T13:28:21;-2.70;77.00
76967;DHT22;65904;52.278;20.972;2022-12-18T13:31:10;-2.80;77.10
76967;DHT22;65904;52.278;20.972;2022-12-18T13:34:12;-2.80;77.80
76967;DHT22;65904;52.278;20.972;2022-12-18T13:43:44;-3.00;79.10
76967;DHT22;65904;52.278;20.972;2022-12-18T13:46:42;-3.00;79.60
76967;DHT22;65904;52.278;20.972;2022-12-18T13:49:37;-3.10;79.40
76967;DHT22;65904;52.278;20.972;2022-12-18T13:52:26;-3.20;79.70
76967;DHT22;65904;52.278;20.972;2022-12-18T13:55:16;-3.40;79.90
76967;DHT22;65904;52.278;20.972;2022-12-18T13:58:05;-3.40;80.80
76967;DHT22;65904;52.278;20.972;2022-12-18T14:00:51;-3.40;81.10
76967;DHT22;65904;52.278;20.972;2022-12-18T14:03:39;-3.40;81.10
76967;DHT22;65904;52.278;20.972;2022-12-18T14:06:25;-3.50;81.40
76967;DHT22;65904;52.278;20.972;2022-12-18T14:09:14;-3.50;81.30
76967;DHT22;65904;52.278;20.972;2022-12-18T14:12:00;-3.40;80.90
76967;DHT22;65904;52.278;20.972;2022-12-18T14:15:06;-3.50;81.20
76967;DHT22;65904;52.278;20.972;2022-12-18T14:17:57;-3.50;81.50
76967;DHT22;65904;52.278;20.972;2022-12-18T14:20:47;-3.50;81.50
76967;DHT22;65904;52.278;20.972;2022-12-18T14:23:38;-3.40;82.10
76967;DHT22;65904;52.278;20.972;2022-12-18T14:26:26;-3.50;81.50
76967;DHT22;65904;52.278;20.972;2022-12-18T14:29:25;-3.50;81.60
76967;DHT22;65904;52.278;20.972;2022-12-18T14:32:13;-3.40;81.90
76967;DHT22;65904;52.278;20.972;2022-12-18T14:35:12;-3.40;81.70
76967;DHT22;65904;52.278;20.972;2022-12-18T14:38:22;-3.50;81.80
76967;DHT22;65904;52.278;20.972;2022-12-18T14:41:11;-3.60;81.40
76967;DHT22;65904;52.278;20.972;2022-12-18T14:44:06;-3.60;81.90
76967;DHT22;65904;52.278;20.972;2022-12-18T14:46:52;-3.60;82.20
76967;DHT22;65904;52.278;20.972;2022-12-18T14:49:41;-3.60;82.30
76967;DHT22;65904;52.278;20.972;2022-12-18T14:52:29;-3.70;82.20
76967;DHT22;65904;52.278;20.972;2022-12-18T14:55:19;-3.60;82.10
76967;DHT22;65904;52.278;20.972;2022-12-18T14:58:14;-3.70;82.10
76967;DHT22;65904;52.278;20.972;2022-12-18T15:01:01;-3.70;82.40
76967;DHT22;65904;52.278;20.972;2022-12-18T15:03:47;-3.70;82.40
76967;DHT22;65904;52.278;20.972;2022-12-18T15:06:36;-3.80;82.60
76967;DHT22;65904;52.278;20.972;2022-12-18T15:09:25;-3.70;82.80
76967;DHT22;65904;52.278;20.972;2022-12-18T15:12:33;-3.70;82.70
76967;DHT22;65904;52.278;20.972;2022-12-18T15:15:46;-3.70;82.80
76967;DHT22;65904;52.278;20.972;2022-12-18T15:18:35;-3.60;82.40
76967;DHT22;65904;52.278;20.972;2022-12-18T15:21:26;-3.60;82.20
76967;DHT22;65904;52.278;20.972;2022-12-18T15:24:18;-3.60;81.60
76967;DHT22;65904;52.278;20.972;2022-12-18T15:27:24;-3.70;81.10
76967;DHT22;65904;52.278;20.972;2022-12-18T15:30:22;-3.70;81.40
76967;DHT22;65904;52.278;20.972;2022-12-18T15:33:24;-3.70;81.30
76967;DHT22;65904;52.278;20.972;2022-12-18T15:36:11;-3.80;81.60
76967;DHT22;65904;52.278;20.972;2022-12-18T15:38:57;-3.80;81.80
76967;DHT22;65904;52.278;20.972;2022-12-18T15:41:44;-3.80;82.00
76967;DHT22;65904;52.278;20.972;2022-12-18T15:44:45;-3.70;82.20
76967;DHT22;65904;52.278;20.972;2022-12-18T15:47:32;-3.70;83.30
76967;DHT22;65904;52.278;20.972;2022-12-18T15:50:18;-3.60;82.10
76967;DHT22;65904;52.278;20.972;2022-12-18T15:53:04;-3.60;82.10
76967;DHT22;65904;52.278;20.972;2022-12-18T15:55:50;-3.60;81.60
76967;DHT22;65904;52.278;20.972;2022-12-18T15:58:54;-3.50;81.60
76967;DHT22;65904;52.278;20.972;2022-12-18T16:01:42;-3.60;81.70
76967;DHT22;65904;52.278;20.972;2022-12-18T16:04:29;-3.70;81.70
76967;DHT22;65904;52.278;20.972;2022-12-18T16:07:15;-3.70;81.60
76967;DHT22;65904;52.278;20.972;2022-12-18T16:10:02;-3.80;81.20
76967;DHT22;65904;52.278;20.972;2022-12-18T16:12:48;-3.80;81.50
76967;DHT22;65904;52.278;20.972;2022-12-18T16:15:34;-3.70;81.40
76967;DHT22;65904;52.278;20.972;2022-12-18T16:18:22;-3.70;81.30
76967;DHT22;65904;52.278;20.972;2022-12-18T16:21:08;-3.80;81.40
76967;DHT22;65904;52.278;20.972;2022-12-18T16:23:56;-3.70;81.70
76967;DHT22;65904;52.278;20.972;2022-12-18T16:26:42;-3.70;81.70
76967;DHT22;65904;52.278;20.972;2022-12-18T16:29:29;-3.70;81.60
76967;DHT22;65904;52.278;20.972;2022-12-18T16:32:16;-3.70;81.20
76967;DHT22;65904;52.278;20.972;2022-12-18T16:35:05;-3.60;81.10
76967;DHT22;65904;52.278;20.972;2022-12-18T16:37:51;-3.70;81.40
76967;DHT22;65904;52.278;20.972;2022-12-18T16:40:38;-3.60;81.50
76967;DHT22;65904;52.278;20.972;2022-12-18T16:43:47;-3.70;81.10
76967;DHT22;65904;52.278;20.972;2022-12-18T16:46:33;-3.70;81.30
76967;DHT22;65904;52.278;20.972;2022-12-18T16:49:19;-3.80;81.40
76967;DHT22;65904;52.278;20.972;2022-12-18T16:52:07;-3.80;81.50
76967;DHT22;65904;52.278;20.972;2022-12-18T16:54:53;-3.80;81.80
76967;DHT22;65904;52.278;20.972;2022-12-18T16:57:40;-3.80;82.00
76967;DHT22;65904;52.278;20.972;2022-12-18T17:00:26;-3.80;81.70
76967;DHT22;65904;52.278;20.972;2022-12-18T17:03:13;-3.70;81.60
76967;DHT22;65904;52.278;20.972;2022-12-18T17:06:02;-3.70;80.70
76967;DHT22;65904;52.278;20.972;2022-12-18T17:08:54;-3.80;81.20
76967;DHT22;65904;52.278;20.972;2022-12-18T17:11:40;-3.80;81.60
76967;DHT22;65904;52.278;20.972;2022-12-18T17:14:27;-3.80;80.90
76967;DHT22;65904;52.278;20.972;2022-12-18T17:17:13;-3.80;80.50
76967;DHT22;65904;52.278;20.972;2022-12-18T17:19:59;-3.80;80.70
76967;DHT22;65904;52.278;20.972;2022-12-18T17:22:46;-3.80;81.30
76967;DHT22;65904;52.278;20.972;2022-12-18T17:25:33;-3.80;81.30
76967;DHT22;65904;52.278;20.972;2022-12-18T17:28:19;-3.90;81.30
76967;DHT22;65904;52.278;20.972;2022-12-18T17:31:10;-3.90;81.80
76967;DHT22;65904;52.278;20.972;2022-12-18T17:33:57;-3.90;81.90
76967;DHT22;65904;52.278;20.972;2022-12-18T17:36:44;-3.90;81.90
76967;DHT22;65904;52.278;20.972;2022-12-18T17:39:30;-3.90;81.90
76967;DHT22;65904;52.278;20.972;2022-12-18T17:42:18;-3.90;81.70